createdAt,value
2023-03-29T00:00:02.394Z,83.56
2023-03-29T00:02:32.041Z,84.03
2023-03-29T00:05:02.196Z,83.87
2023-03-29T00:07:30.287Z,84.02
2023-03-29T00:09:56.796Z,84.61
2023-03-29T00:12:23.478Z,83.79
2023-03-29T00:14:49.911Z,83.18
2023-03-29T00:17:16.474Z,84.60
2023-03-29T00:19:44.208Z,83.93
2023-03-29T00:22:11.258Z,84.73
2023-03-29T00:24:38.050Z,84.64
2023-03-29T00:27:04.840Z,85.32
2023-03-29T00:29:31.375Z,84.19
2023-03-29T00:32:01.039Z,84.20
2023-03-29T00:34:30.946Z,83.63
2023-03-29T00:36:58.330Z,84.16
2023-03-29T00:39:26.458Z,84.04
2023-03-29T00:41:53.238Z,84.24
2023-03-29T00:44:57.468Z,84.62
2023-03-29T00:47:32.470Z,84.82
2023-03-29T00:50:04.143Z,84.12
2023-03-29T00:52:32.198Z,83.94
2023-03-29T00:55:03.465Z,84.37
2023-03-29T00:57:31.397Z,84.47
2023-03-29T00:59:59.810Z,84.37
2023-03-29T01:02:34.850Z,84.49
2023-03-29T01:05:25.969Z,84.25
2023-03-29T01:08:18.317Z,84.90
2023-03-29T01:10:53.416Z,84.48
2023-03-29T01:13:27.497Z,85.16
2023-03-29T01:15:56.529Z,85.69
2023-03-29T01:18:23.171Z,85.39
2023-03-29T01:21:03.448Z,85.12
2023-03-29T01:23:51.158Z,85.67
2023-03-29T01:26:33.657Z,85.46
2023-03-29T01:29:07.590Z,85.69
2023-03-29T01:31:42.207Z,84.93
2023-03-29T01:34:27.672Z,85.07
2023-03-29T01:37:13.466Z,85.12
2023-03-29T01:39:40.081Z,85.18
2023-03-29T01:42:12.856Z,85.14
2023-03-29T01:44:42.196Z,86.58
2023-03-29T01:47:16.173Z,85.54
2023-03-29T01:49:54.375Z,85.09
2023-03-29T01:52:31.967Z,85.40
2023-03-29T01:55:05.518Z,85.56
2023-03-29T01:57:34.183Z,85.52
2023-03-29T02:00:15.122Z,85.22
2023-03-29T02:02:44.861Z,84.73
2023-03-29T02:05:16.504Z,85.15
2023-03-29T02:07:46.121Z,85.16
2023-03-29T02:10:14.478Z,85.29
2023-03-29T02:12:41.441Z,85.46
2023-03-29T02:15:13.390Z,85.59
2023-03-29T02:17:40.190Z,85.07
2023-03-29T02:20:22.579Z,84.90
2023-03-29T02:23:02.332Z,84.48
2023-03-29T02:25:29.603Z,84.54
2023-03-29T02:28:04.308Z,84.87
2023-03-29T02:30:56.380Z,85.26
2023-03-29T02:33:46.083Z,84.07
2023-03-29T02:36:18.937Z,84.22
2023-03-29T02:38:45.505Z,84.38
2023-03-29T02:41:13.093Z,84.08
2023-03-29T02:43:42.076Z,84.47
2023-03-29T02:46:10.962Z,84.22
2023-03-29T02:48:38.640Z,84.23
2023-03-29T02:51:20.030Z,84.36
2023-03-29T02:54:00.264Z,84.13
2023-03-29T02:56:43.343Z,84.01
2023-03-29T02:59:12.099Z,84.47
2023-03-29T03:01:39.782Z,84.36
2023-03-29T03:04:06.382Z,83.89
2023-03-29T03:06:32.735Z,83.36
2023-03-29T03:09:01.191Z,84.12
2023-03-29T03:11:28.150Z,84.06
2023-03-29T03:13:54.774Z,83.47
2023-03-29T03:16:34.706Z,82.87
2023-03-29T03:19:01.207Z,83.78
2023-03-29T03:21:31.074Z,83.18
2023-03-29T03:23:57.543Z,83.28
2023-03-29T03:26:25.002Z,82.96
2023-03-29T03:28:51.486Z,83.16
2023-03-29T03:31:19.613Z,83.41
2023-03-29T03:33:46.108Z,82.60
2023-03-29T03:36:15.521Z,83.02
2023-03-29T03:38:42.367Z,83.03
2023-03-29T03:41:09.136Z,82.71
2023-03-29T03:43:35.780Z,82.61
2023-03-29T03:46:02.435Z,82.87
2023-03-29T03:48:28.973Z,84.26
2023-03-29T03:51:04.908Z,84.02
2023-03-29T03:53:47.388Z,84.56
2023-03-29T03:56:14.342Z,83.82
2023-03-29T03:58:41.279Z,84.28
2023-03-29T04:01:08.950Z,83.58
2023-03-29T04:03:36.171Z,83.47
2023-03-29T04:06:04.043Z,83.67
2023-03-29T04:08:30.681Z,83.19
2023-03-29T04:11:02.829Z,82.98
2023-03-29T04:13:41.911Z,84.44
2023-03-29T04:16:08.698Z,83.27
2023-03-29T04:18:35.455Z,83.85
2023-03-29T04:21:02.640Z,83.71
2023-03-29T04:23:29.298Z,83.01
2023-03-29T04:25:56.735Z,83.14
2023-03-29T04:28:23.232Z,83.14
2023-03-29T04:30:55.842Z,83.38
2023-03-29T04:33:48.805Z,82.72
2023-03-29T04:43:32.021Z,83.17
2023-03-29T04:46:01.472Z,82.69
2023-03-29T04:48:30.373Z,82.73
2023-03-29T04:50:57.059Z,82.28
2023-03-29T04:53:29.810Z,81.79
2023-03-29T04:55:59.107Z,82.05
2023-03-29T04:58:31.656Z,82.67
2023-03-29T05:00:59.469Z,82.69
2023-03-29T05:03:27.062Z,82.36
2023-03-29T05:05:53.724Z,82.30
2023-03-29T05:08:20.757Z,82.14
2023-03-29T05:10:57.016Z,81.33
2023-03-29T05:17:49.825Z,81.45
2023-03-29T05:20:29.980Z,80.52
2023-03-29T05:23:34.044Z,79.63
2023-03-29T05:26:00.606Z,79.31
2023-03-29T05:28:27.269Z,78.02
2023-03-29T05:31:01.387Z,78.74
2023-03-29T05:33:39.161Z,79.80
2023-03-29T05:36:19.065Z,79.27
2023-03-29T05:38:46.879Z,78.90
2023-03-29T05:41:14.108Z,79.36
2023-03-29T05:43:40.531Z,78.96
2023-03-29T05:46:07.709Z,78.70
2023-03-29T05:48:47.353Z,78.75
2023-03-29T05:51:13.866Z,78.01
2023-03-29T05:53:47.798Z,76.31
2023-03-29T05:56:17.419Z,75.34
2023-03-29T06:02:38.792Z,75.00
2023-03-29T06:12:28.199Z,71.66
2023-03-29T06:14:55.197Z,70.75
2023-03-29T06:17:24.915Z,72.00
2023-03-29T06:19:53.184Z,69.54
2023-03-29T06:22:19.566Z,68.55
2023-03-29T06:24:46.352Z,68.85
2023-03-29T06:27:12.682Z,67.24
2023-03-29T06:29:45.771Z,67.06
2023-03-29T06:32:12.660Z,66.13
2023-03-29T06:34:39.085Z,65.90
2023-03-29T06:37:05.992Z,66.04
2023-03-29T06:39:37.932Z,67.68
2023-03-29T06:42:20.226Z,66.80
2023-03-29T06:45:07.292Z,65.14
2023-03-29T06:48:02.325Z,64.05
2023-03-29T06:50:32.332Z,63.28
2023-03-29T06:52:58.817Z,63.61
2023-03-29T06:55:38.794Z,62.63
2023-03-29T06:58:09.336Z,62.65
2023-03-29T07:00:49.087Z,62.58
2023-03-29T07:03:20.749Z,62.94
2023-03-29T07:05:47.576Z,65.02
2023-03-29T07:08:16.457Z,63.38
2023-03-29T07:10:44.383Z,64.53
2023-03-29T07:13:17.441Z,66.31
2023-03-29T07:15:44.115Z,64.65
2023-03-29T07:18:11.045Z,63.63
2023-03-29T07:20:39.085Z,63.71
2023-03-29T07:23:06.007Z,61.68
2023-03-29T07:25:34.011Z,59.99
2023-03-29T07:28:00.393Z,60.56
2023-03-29T07:30:32.141Z,59.65
2023-03-29T07:32:59.273Z,60.01
2023-03-29T07:35:26.833Z,59.22
2023-03-29T07:37:55.141Z,59.64
2023-03-29T07:40:24.886Z,58.85
2023-03-29T07:42:55.243Z,61.27
2023-03-29T07:45:26.467Z,61.46
2023-03-29T07:47:58.512Z,63.86
2023-03-29T07:50:32.723Z,59.65
2023-03-29T07:53:02.980Z,61.19
2023-03-29T07:55:33.304Z,61.32
2023-03-29T07:57:59.692Z,60.82
2023-03-29T08:00:26.404Z,59.55
2023-03-29T08:02:55.817Z,59.77
2023-03-29T08:05:37.799Z,58.05
2023-03-29T08:08:25.775Z,58.26
2023-03-29T08:10:53.001Z,58.76
2023-03-29T08:13:35.644Z,59.31
2023-03-29T08:16:57.261Z,60.04
2023-03-29T08:19:23.799Z,55.51
2023-03-29T08:21:50.703Z,57.51
2023-03-29T08:24:19.752Z,57.43
2023-03-29T08:26:50.581Z,58.20
2023-03-29T08:29:17.025Z,57.55
2023-03-29T08:31:44.587Z,59.32
2023-03-29T08:37:09.910Z,57.59
2023-03-29T08:39:36.459Z,55.19
2023-03-29T08:42:21.626Z,58.09
2023-03-29T08:45:13.138Z,57.74
2023-03-29T08:47:49.972Z,59.32
2023-03-29T08:50:26.324Z,59.42
2023-03-29T08:53:07.907Z,58.33
2023-03-29T08:55:42.220Z,58.67
2023-03-29T08:58:13.683Z,60.42
2023-03-29T09:00:44.812Z,58.52
2023-03-29T09:03:17.675Z,58.10
2023-03-29T09:05:50.936Z,57.72
2023-03-29T09:08:18.687Z,58.53
2023-03-29T09:10:52.438Z,57.84
2023-03-29T09:13:19.560Z,58.19
2023-03-29T09:15:52.189Z,57.84
2023-03-29T09:18:26.874Z,58.87
2023-03-29T09:20:57.143Z,59.13
2023-03-29T09:23:26.991Z,58.44
2023-03-29T09:26:15.288Z,59.25
2023-03-29T09:29:00.437Z,59.58
2023-03-29T09:31:33.641Z,57.39
2023-03-29T09:34:03.900Z,59.35
2023-03-29T09:36:34.336Z,58.76
2023-03-29T09:39:00.990Z,57.40
2023-03-29T09:41:32.710Z,58.03
2023-03-29T09:44:01.771Z,59.43
2023-03-29T09:46:37.423Z,58.02
2023-03-29T09:49:06.692Z,57.44
2023-03-29T09:51:33.969Z,57.94
2023-03-29T09:54:01.149Z,56.59
2023-03-29T09:56:27.824Z,57.79
2023-03-29T09:58:54.435Z,58.22
2023-03-29T10:01:39.644Z,58.38
2023-03-29T10:04:07.564Z,59.59
2023-03-29T10:06:34.603Z,59.97
2023-03-29T10:09:01.278Z,59.63
2023-03-29T10:11:31.001Z,58.64
2023-03-29T10:14:01.890Z,59.30
2023-03-29T10:16:38.853Z,57.17
2023-03-29T10:19:33.021Z,57.88
2023-03-29T10:22:00.681Z,58.57
2023-03-29T10:24:27.397Z,59.18
2023-03-29T10:26:55.786Z,60.02
2023-03-29T10:29:25.696Z,58.82
2023-03-29T10:31:54.867Z,59.49
2023-03-29T10:34:26.022Z,58.41
2023-03-29T10:36:58.703Z,59.10
2023-03-29T10:39:27.662Z,58.03
2023-03-29T10:41:54.154Z,58.67
2023-03-29T10:44:39.796Z,59.08
2023-03-29T10:47:34.657Z,58.91
2023-03-29T10:50:04.589Z,59.33
2023-03-29T10:52:31.499Z,58.83
2023-03-29T10:54:59.359Z,59.26
2023-03-29T10:58:01.843Z,59.14
2023-03-29T11:00:54.227Z,58.35
2023-03-29T11:03:25.911Z,59.50
2023-03-29T11:06:14.880Z,59.88
2023-03-29T11:08:48.986Z,60.29
2023-03-29T11:11:41.180Z,60.11
2023-03-29T11:14:23.033Z,59.85
2023-03-29T11:16:55.837Z,59.95
2023-03-29T11:19:34.828Z,58.74
2023-03-29T11:22:19.977Z,58.58
2023-03-29T11:25:06.592Z,58.63
2023-03-29T11:27:47.700Z,58.46
2023-03-29T11:30:29.094Z,56.64
2023-03-29T11:33:15.189Z,57.93
2023-03-29T11:36:01.816Z,56.87
2023-03-29T11:41:54.216Z,54.97
2023-03-29T11:44:24.350Z,54.25
2023-03-29T11:47:44.807Z,55.62
2023-03-29T11:50:30.545Z,55.93
2023-03-29T11:53:14.834Z,54.95
2023-03-29T11:56:19.985Z,55.22
2023-03-29T11:58:52.723Z,55.56
2023-03-29T12:01:28.662Z,56.28
2023-03-29T12:04:26.569Z,55.31
2023-03-29T12:07:10.871Z,55.62
2023-03-29T12:09:58.190Z,55.57
2023-03-29T12:15:28.054Z,56.14
2023-03-29T12:18:07.094Z,55.25
2023-03-29T12:20:47.699Z,54.84
2023-03-29T12:23:15.834Z,56.54
2023-03-29T12:26:11.244Z,55.90
2023-03-29T12:28:56.958Z,56.06
2023-03-29T12:31:42.145Z,56.45
2023-03-29T12:34:14.753Z,56.30
2023-03-29T12:36:53.585Z,55.77
2023-03-29T12:39:21.024Z,55.23
2023-03-29T12:41:54.515Z,55.48
2023-03-29T12:44:27.321Z,57.62
2023-03-29T12:47:00.665Z,57.75
2023-03-29T12:49:27.076Z,57.32
2023-03-29T12:51:55.175Z,56.68
2023-03-29T12:54:32.735Z,57.42
2023-03-29T12:57:18.354Z,57.13
2023-03-29T12:59:46.993Z,58.78
2023-03-29T13:02:14.163Z,56.13
2023-03-29T13:04:43.822Z,56.64
2023-03-29T13:07:22.695Z,57.75
2023-03-29T13:09:51.314Z,56.58
2023-03-29T13:12:33.589Z,57.09
2023-03-29T13:15:05.938Z,55.71
2023-03-29T13:17:51.533Z,55.86
2023-03-29T13:20:37.515Z,56.21
2023-03-29T13:23:22.630Z,57.53
2023-03-29T13:26:11.563Z,56.81
2023-03-29T13:28:49.030Z,55.51
2023-03-29T13:31:35.044Z,56.13
2023-03-29T13:34:05.540Z,55.58
2023-03-29T13:36:41.135Z,56.96
2023-03-29T13:39:14.238Z,55.06
2023-03-29T13:41:40.855Z,55.21
2023-03-29T13:44:26.594Z,54.88
2023-03-29T13:47:12.498Z,55.06
2023-03-29T13:50:10.271Z,54.78
2023-03-29T13:53:16.171Z,53.74
2023-03-29T13:56:09.135Z,55.08
2023-03-29T13:58:47.334Z,55.50
2023-03-29T14:01:18.930Z,54.54
2023-03-29T14:04:28.891Z,56.39
2023-03-29T14:07:16.322Z,56.82
2023-03-29T14:10:07.045Z,56.78
2023-03-29T14:12:56.870Z,56.99
2023-03-29T14:15:47.222Z,56.36
2023-03-29T14:18:39.756Z,55.35
2023-03-29T14:24:10.435Z,56.87
2023-03-29T14:27:00.145Z,57.53
2023-03-29T14:30:07.089Z,57.21
2023-03-29T14:32:52.937Z,58.25
2023-03-29T14:35:57.216Z,56.94
2023-03-29T14:38:40.236Z,58.53
2023-03-29T14:47:30.415Z,58.80
2023-03-29T14:50:06.118Z,59.31
2023-03-29T14:52:41.923Z,58.44
2023-03-29T14:55:09.934Z,58.49
2023-03-29T14:57:36.676Z,57.79
2023-03-29T15:00:59.223Z,57.31
2023-03-29T15:03:47.613Z,57.60
2023-03-29T15:06:24.818Z,57.09
2023-03-29T15:09:02.098Z,57.69
2023-03-29T15:11:31.730Z,59.14
2023-03-29T15:14:08.791Z,59.10
2023-03-29T15:16:38.856Z,58.64
2023-03-29T15:19:15.645Z,58.63
2023-03-29T15:21:43.184Z,58.50
2023-03-29T15:24:25.730Z,59.94
2023-03-29T15:27:18.669Z,60.21
2023-03-29T15:29:51.738Z,61.80
2023-03-29T15:39:31.851Z,63.61
2023-03-29T15:41:58.518Z,64.72
2023-03-29T15:44:29.389Z,63.55
2023-03-29T15:46:57.745Z,64.37
2023-03-29T15:49:24.831Z,65.10
2023-03-29T15:58:51.500Z,65.68
2023-03-29T16:01:39.125Z,65.10
2023-03-29T16:04:05.639Z,64.56
2023-03-29T16:06:32.630Z,64.00
2023-03-29T16:08:59.876Z,63.88
2023-03-29T16:11:28.477Z,66.25
2023-03-29T16:13:55.479Z,64.49
2023-03-29T16:16:22.413Z,64.78
2023-03-29T16:18:48.931Z,66.66
2023-03-29T16:21:21.377Z,64.72
2023-03-29T16:24:00.892Z,66.41
2023-03-29T16:26:27.365Z,64.87
2023-03-29T16:28:54.014Z,65.85
2023-03-29T16:31:23.670Z,64.26
2023-03-29T16:33:50.618Z,64.78
2023-03-29T16:36:17.114Z,64.42
2023-03-29T16:38:43.748Z,63.69
2023-03-29T16:41:14.061Z,64.42
2023-03-29T16:43:40.931Z,66.09
2023-03-29T16:46:09.347Z,66.17
2023-03-29T16:48:36.360Z,65.89
2023-03-29T16:51:03.579Z,66.87
2023-03-29T16:53:30.357Z,66.06
2023-03-29T16:55:57.538Z,65.74
2023-03-29T16:58:24.373Z,65.86
2023-03-29T17:00:53.839Z,65.71
2023-03-29T17:03:21.134Z,64.54
2023-03-29T17:05:48.034Z,64.32
2023-03-29T17:08:14.418Z,65.02
2023-03-29T17:10:41.418Z,66.05
2023-03-29T17:13:15.512Z,67.10
2023-03-29T17:15:42.081Z,66.46
2023-03-29T17:18:17.575Z,66.34
2023-03-29T17:24:26.239Z,68.34
2023-03-29T17:27:30.770Z,68.00
2023-03-29T17:36:43.538Z,67.72
2023-03-29T17:39:20.502Z,67.09
2023-03-29T17:42:11.007Z,69.20
2023-03-29T17:44:47.140Z,68.29
2023-03-29T17:47:22.576Z,68.42
2023-03-29T17:49:59.483Z,70.12
2023-03-29T17:52:49.000Z,69.26
2023-03-29T17:55:48.436Z,69.40
2023-03-29T17:58:33.330Z,68.58
2023-03-29T18:01:22.137Z,69.71
2023-03-29T18:07:18.571Z,70.63
2023-03-29T18:10:21.045Z,70.02
2023-03-29T18:13:01.923Z,68.89
2023-03-29T18:16:07.190Z,69.37
2023-03-29T18:18:52.458Z,69.21
2023-03-29T18:24:11.493Z,70.86
2023-03-29T18:30:47.522Z,72.08
2023-03-29T18:33:57.437Z,71.63
2023-03-29T18:54:32.307Z,72.47
2023-03-29T19:10:22.952Z,74.13
2023-03-29T19:16:51.886Z,74.73
2023-03-29T19:50:06.317Z,78.56
2023-03-29T19:53:48.695Z,76.93
2023-03-29T19:59:39.277Z,77.49
2023-03-29T20:02:39.170Z,78.10
2023-03-29T20:09:12.764Z,76.83
2023-03-29T20:15:55.449Z,76.51
2023-03-29T20:18:52.805Z,75.86
2023-03-29T20:24:59.290Z,77.08
2023-03-29T20:27:37.873Z,77.86
2023-03-29T20:30:31.170Z,79.13
2023-03-29T20:40:05.501Z,77.80
2023-03-29T20:42:34.437Z,78.26
2023-03-29T20:45:51.594Z,77.50
2023-03-29T20:48:21.747Z,77.61
2023-03-29T20:50:48.439Z,78.53
2023-03-29T20:53:15.276Z,80.13
2023-03-29T20:55:42.795Z,78.91
2023-03-29T20:58:12.383Z,79.28
2023-03-29T21:00:47.614Z,79.08
2023-03-29T21:03:14.311Z,79.06
2023-03-29T21:05:40.929Z,79.00
2023-03-29T21:08:08.625Z,79.51
2023-03-29T21:10:36.682Z,78.79
2023-03-29T21:13:05.960Z,78.29
2023-03-29T21:15:33.792Z,78.68
2023-03-29T21:18:08.961Z,79.72
2023-03-29T21:21:05.157Z,79.27
2023-03-29T21:23:40.136Z,80.92
2023-03-29T21:26:09.547Z,80.27
2023-03-29T21:28:37.617Z,79.45
2023-03-29T21:31:07.721Z,80.73
2023-03-29T21:33:34.348Z,79.90
2023-03-29T21:36:01.037Z,79.91
2023-03-29T21:38:27.823Z,80.77
2023-03-29T21:40:54.374Z,81.16
2023-03-29T21:43:21.426Z,82.01
2023-03-29T21:45:48.458Z,80.79
2023-03-29T21:48:14.896Z,81.19
2023-03-29T21:50:41.408Z,81.45
2023-03-29T21:53:07.760Z,81.22
2023-03-29T21:55:36.238Z,81.57
2023-03-29T21:58:03.719Z,80.83
2023-03-29T22:00:56.642Z,82.41
2023-03-29T22:03:35.181Z,82.68
2023-03-29T22:06:02.608Z,81.50
2023-03-29T22:08:29.234Z,81.85
2023-03-29T22:10:56.939Z,82.53
2023-03-29T22:13:24.536Z,82.40
2023-03-29T22:15:55.175Z,81.76
2023-03-29T22:18:21.664Z,81.53
2023-03-29T22:20:48.506Z,81.12
2023-03-29T22:23:15.479Z,80.94
2023-03-29T22:25:41.873Z,82.04
2023-03-29T22:28:08.337Z,81.76
2023-03-29T22:30:34.783Z,82.87
2023-03-29T22:33:01.273Z,82.14
2023-03-29T22:35:27.703Z,83.12
2023-03-29T22:37:54.481Z,82.80
2023-03-29T22:40:20.877Z,83.59
2023-03-29T22:42:47.236Z,83.35
2023-03-29T22:45:14.230Z,84.01
2023-03-29T22:47:40.927Z,85.82
2023-03-29T22:50:07.642Z,85.79
2023-03-29T22:52:33.985Z,86.72
2023-03-29T22:55:03.210Z,85.59
2023-03-29T22:57:29.621Z,85.14
2023-03-29T22:59:56.097Z,84.72
2023-03-29T23:02:22.916Z,84.68
2023-03-29T23:04:49.426Z,84.75
2023-03-29T23:07:16.173Z,84.27
2023-03-29T23:09:42.610Z,85.80
2023-03-29T23:12:10.941Z,86.49
2023-03-29T23:18:30.429Z,85.57
2023-03-29T23:20:57.687Z,85.42
2023-03-29T23:23:25.315Z,85.97
2023-03-29T23:25:52.859Z,88.32
2023-03-29T23:28:21.755Z,88.82
2023-03-29T23:30:58.661Z,88.26
2023-03-29T23:33:25.744Z,88.36
2023-03-29T23:35:52.901Z,88.39
2023-03-29T23:38:19.429Z,89.17
2023-03-29T23:40:52.040Z,90.31
2023-03-29T23:43:18.381Z,90.28
2023-03-29T23:45:45.395Z,90.60
2023-03-29T23:48:12.031Z,90.27
2023-03-29T23:50:38.450Z,91.33
2023-03-29T23:53:05.141Z,91.38
2023-03-29T23:55:32.204Z,90.80
2023-03-29T23:57:58.532Z,91.53
